Time;durP1;ratioP1;P1;durP2;ratioP2;P2;SDS_P1;SDS_P2;PMS_P1;PMS_P2;Temp;Humidity;BMP_temperature;BMP_pressure;BME280_temperature;BME280_humidity;BME280_pressure;Samples;Min_cycle;Max_cycle;Signal;HPM_P1;HPM_P2
2023/02/24 00:02:13;;;;;;;54.35;25.45;;;;;;;6.16;100.00;100786.19;5083879;28;20059;-76
2023/02/24 00:04:40;;;;;;;50.60;21.23;;;;;;;6.16;100.00;100790.53;5077325;28;20044;-76
2023/02/24 00:07:07;;;;;;;52.90;22.05;;;;;;;6.15;100.00;100787.13;5085156;28;20048;-77
2023/02/24 00:09:38;;;;;;;47.58;21.38;;;;;;;6.17;100.00;100776.59;5065691;28;20075;-79
2023/02/24 00:12:07;;;;;;;52.45;21.73;;;;;;;6.13;100.00;100781.25;5083575;28;20052;-78
2023/02/24 00:14:36;;;;;;;49.95;21.10;;;;;;;6.18;100.00;100780.84;5084495;28;20506;-77
2023/02/24 00:17:04;;;;;;;44.45;20.73;;;;;;;6.20;100.00;100771.16;5073537;28;20076;-77
2023/02/24 00:19:32;;;;;;;49.55;20.25;;;;;;;6.15;100.00;100768.94;5072242;28;20060;-77
2023/02/24 00:22:00;;;;;;;41.95;19.23;;;;;;;6.08;100.00;100770.41;5081749;28;20128;-75
2023/02/24 00:24:27;;;;;;;41.60;18.88;;;;;;;6.10;100.00;100754.69;5079867;28;20092;-76
2023/02/24 00:26:58;;;;;;;41.72;18.55;;;;;;;6.01;100.00;100756.25;5080172;28;20045;-75
2023/02/24 00:29:25;;;;;;;42.20;20.40;;;;;;;5.96;100.00;100763.59;5067503;28;20049;-75
2023/02/24 00:31:57;;;;;;;44.72;20.75;;;;;;;6.01;100.00;100758.84;5074653;28;20045;-77
2023/02/24 00:34:24;;;;;;;51.53;21.63;;;;;;;6.04;100.00;100758.59;5078474;28;20056;-76
2023/02/24 00:36:53;;;;;;;53.53;21.83;;;;;;;6.00;100.00;100733.81;5080123;28;20052;-76
2023/02/24 00:39:27;;;;;;;52.70;24.48;;;;;;;6.01;100.00;100743.28;5079214;28;20071;-76
2023/02/24 00:42:03;;;;;;;54.38;25.13;;;;;;;5.96;100.00;100742.81;5070843;28;20056;-77
2023/02/24 00:44:31;;;;;;;61.92;25.70;;;;;;;6.01;100.00;100748.47;5080021;28;20079;-77
2023/02/24 00:46:58;;;;;;;53.65;24.98;;;;;;;5.94;100.00;100737.75;5078615;28;20060;-77
2023/02/24 00:49:25;;;;;;;49.47;23.40;;;;;;;5.98;100.00;100738.31;5066645;28;20064;-77
2023/02/24 00:51:53;;;;;;;58.85;23.90;;;;;;;5.97;100.00;100731.47;5078784;28;20049;-76
2023/02/24 00:54:20;;;;;;;59.42;24.73;;;;;;;5.98;100.00;100726.16;5068983;28;20045;-77
2023/02/24 00:56:49;;;;;;;65.70;25.65;;;;;;;5.93;100.00;100717.09;5076945;28;20135;-77
2023/02/24 00:59:19;;;;;;;64.20;28.17;;;;;;;5.96;100.00;100722.03;5059054;28;20081;-76
2023/02/24 01:01:48;;;;;;;63.30;27.75;;;;;;;5.93;100.00;100710.13;5069731;28;20052;-75
2023/02/24 01:04:15;;;;;;;61.13;25.08;;;;;;;5.96;100.00;100711.66;5076307;28;20395;-77
2023/02/24 01:06:44;;;;;;;64.30;24.88;;;;;;;5.96;100.00;100714.25;5066077;28;20080;-75
2023/02/24 01:09:13;;;;;;;56.28;23.05;;;;;;;5.94;100.00;100709.16;5086400;28;20048;-78
2023/02/24 01:14:29;;;;;;;54.85;21.98;;;;;;;5.93;100.00;100694.53;5076666;28;20044;-78
2023/02/24 01:16:56;;;;;;;44.78;21.80;;;;;;;5.91;100.00;100690.41;5079506;28;20546;-76
2023/02/24 01:19:30;;;;;;;47.20;20.35;;;;;;;5.89;100.00;100687.13;5084567;28;20044;-77
2023/02/24 01:21:56;;;;;;;52.78;20.95;;;;;;;5.79;100.00;100683.56;5085330;28;20049;-76
2023/02/24 01:24:25;;;;;;;51.50;19.45;;;;;;;5.78;100.00;100671.53;5068081;28;20053;-78
2023/02/24 01:26:53;;;;;;;52.53;19.20;;;;;;;5.73;100.00;100681.47;5076586;28;20076;-77
2023/02/24 01:29:21;;;;;;;49.33;19.77;;;;;;;5.68;100.00;100687.84;5072802;28;20041;-79
2023/02/24 01:31:50;;;;;;;54.42;20.63;;;;;;;5.72;100.00;100687.59;5082235;28;20058;-78
2023/02/24 01:34:17;;;;;;;53.78;21.00;;;;;;;5.74;100.00;100680.53;5088861;28;20045;-78
2023/02/24 01:36:44;;;;;;;44.38;20.33;;;;;;;5.69;100.00;100678.28;5079222;28;20109;-78
2023/02/24 01:39:12;;;;;;;53.05;21.45;;;;;;;5.73;100.00;100660.69;5072088;28;20072;-77
2023/02/24 01:41:41;;;;;;;60.50;22.35;;;;;;;5.59;100.00;100677.41;5078883;28;20049;-77
2023/02/24 01:44:31;;;;;;;58.75;22.52;;;;;;;5.63;100.00;100674.44;5087620;28;20491;-76
2023/02/24 01:47:02;;;;;;;53.03;21.42;;;;;;;5.55;100.00;100671.63;5088340;28;20062;-76
2023/02/24 01:49:35;;;;;;;61.40;21.88;;;;;;;5.61;100.00;100662.53;5087506;28;20075;-78
2023/02/24 01:52:05;;;;;;;72.05;21.92;;;;;;;5.66;100.00;100663.00;5080920;28;20049;-77
2023/02/24 01:54:35;;;;;;;45.83;19.58;;;;;;;5.62;100.00;100661.59;5076440;28;20071;-77
2023/02/24 01:57:04;;;;;;;58.92;20.27;;;;;;;5.54;100.00;100663.97;5076715;28;20098;-78
2023/02/24 01:59:35;;;;;;;58.30;21.48;;;;;;;5.55;100.00;100657.84;5087321;28;20044;-78
2023/02/24 02:02:06;;;;;;;57.67;22.40;;;;;;;5.52;100.00;100666.69;5081943;28;20053;-78
2023/02/24 02:04:41;;;;;;;60.05;22.90;;;;;;;5.48;100.00;100665.28;5084470;28;20447;-80
2023/02/24 02:07:15;;;;;;;63.13;24.35;;;;;;;5.43;100.00;100656.22;5079495;28;20048;-78
2023/02/24 02:09:45;;;;;;;62.42;23.52;;;;;;;5.52;100.00;100645.94;5079023;28;20094;-78
2023/02/24 02:12:13;;;;;;;48.33;18.35;;;;;;;5.48;100.00;100652.31;5087581;28;20063;-77
2023/02/24 02:14:43;;;;;;;41.13;16.05;;;;;;;5.42;100.00;100660.56;5069734;28;20072;-79
2023/02/24 02:17:21;;;;;;;42.10;15.00;;;;;;;5.49;100.00;100643.56;5077849;28;20045;-79
2023/02/24 02:20:30;;;;;;;37.70;13.23;;;;;;;5.36;100.00;100650.69;5083331;28;20053;-78
2023/02/24 02:23:39;;;;;;;41.55;14.27;;;;;;;5.27;100.00;100654.00;5082370;28;20053;-79
2023/02/24 02:26:23;;;;;;;47.15;13.77;;;;;;;5.25;100.00;100641.16;5080302;28;20123;-81
2023/02/24 02:29:24;;;;;;;42.78;13.60;;;;;;;5.25;100.00;100635.97;5075596;28;20079;-78
2023/02/24 02:32:17;;;;;;;36.97;13.68;;;;;;;5.20;100.00;100632.13;5072109;28;20404;-76
2023/02/24 02:34:54;;;;;;;45.45;13.23;;;;;;;5.09;100.00;100629.53;5075547;28;20083;-79
2023/02/24 02:37:31;;;;;;;41.67;13.68;;;;;;;5.06;100.00;100633.19;5085285;28;20222;-78
2023/02/24 02:40:18;;;;;;;31.55;13.25;;;;;;;5.03;100.00;100627.41;5085751;28;20070;-79
2023/02/24 02:42:49;;;;;;;49.67;12.93;;;;;;;5.07;100.00;100623.66;5063625;28;20436;-77
2023/02/24 02:45:22;;;;;;;43.38;13.05;;;;;;;5.02;100.00;100625.78;5063397;28;20073;-77
2023/02/24 02:47:52;;;;;;;45.30;14.02;;;;;;;4.97;100.00;100629.53;5067815;28;20056;-78
2023/02/24 02:50:26;;;;;;;41.35;12.73;;;;;;;4.97;100.00;100626.94;5074180;28;20056;-78
2023/02/24 02:52:57;;;;;;;47.85;11.05;;;;;;;4.92;100.00;100616.13;5073466;28;20112;-78
2023/02/24 02:55:32;;;;;;;46.42;11.43;;;;;;;4.87;100.00;100605.28;5079490;28;20108;-79
2023/02/24 02:58:02;;;;;;;32.75;10.70;;;;;;;4.90;100.00;100612.81;5078347;28;20423;-81
2023/02/24 03:00:34;;;;;;;33.38;12.10;;;;;;;4.86;100.00;100605.38;5078312;28;20041;-79
2023/02/24 03:03:07;;;;;;;34.60;11.40;;;;;;;4.91;100.00;100614.47;5089863;28;20045;-79
2023/02/24 03:05:45;;;;;;;38.50;10.35;;;;;;;4.93;100.00;100609.97;5078786;28;20486;-77
2023/02/24 03:08:15;;;;;;;28.85;10.23;;;;;;;4.88;100.00;100600.91;5079114;28;20060;-80
2023/02/24 03:10:49;;;;;;;29.48;10.38;;;;;;;4.76;100.00;100592.31;5080614;28;20040;-77
2023/02/24 03:13:18;;;;;;;35.03;10.30;;;;;;;4.79;100.00;100583.47;5066695;28;20051;-78
2023/02/24 03:15:47;;;;;;;27.90;9.73;;;;;;;4.78;100.00;100577.47;5072512;28;20045;-77
2023/02/24 03:18:19;;;;;;;42.53;10.43;;;;;;;4.79;100.00;100567.94;5089687;28;20068;-77
2023/02/24 03:20:52;;;;;;;33.22;11.05;;;;;;;4.78;100.00;100577.47;5076946;28;20506;-78
2023/02/24 03:23:24;;;;;;;36.65;13.20;;;;;;;4.78;100.00;100576.66;5078710;28;20083;-77
2023/02/24 03:25:57;;;;;;;40.22;12.15;;;;;;;4.77;100.00;100575.81;5085071;28;20053;-78
2023/02/24 03:28:29;;;;;;;;;;;;;;;4.72;100.00;100561.59;5086702;28;20032;-76
2023/02/24 03:31:02;;;;;;;42.40;11.32;;;;;;;4.73;100.00;100564.03;5081006;28;19963;-75
2023/02/24 03:33:35;;;;;;;33.45;9.48;;;;;;;4.74;100.00;100565.69;5076854;28;20059;-77
2023/02/24 03:36:04;;;;;;;31.25;10.00;;;;;;;4.68;100.00;100570.56;5085591;28;20083;-77
2023/02/24 03:38:34;;;;;;;36.60;8.68;;;;;;;4.74;100.00;100575.22;5081504;28;20423;-78
2023/02/24 03:41:01;;;;;;;31.58;6.88;;;;;;;4.74;100.00;100565.69;5075275;28;20047;-77
2023/02/24 03:43:31;;;;;;;37.00;7.22;;;;;;;4.84;100.00;100552.84;5065307;28;20052;-77
2023/02/24 03:45:59;;;;;;;24.55;6.85;;;;;;;4.71;100.00;100553.00;5076722;28;20087;-77
2023/02/24 03:48:28;;;;;;;21.20;5.95;;;;;;;4.76;100.00;100548.25;5082250;28;20053;-77
2023/02/24 03:50:55;;;;;;;23.70;6.40;;;;;;;4.72;100.00;100548.63;5074859;28;20144;-77
2023/02/24 03:53:34;;;;;;;26.70;6.20;;;;;;;4.73;100.00;100553.69;5083811;28;20052;-78
2023/02/24 03:56:12;;;;;;;28.63;7.10;;;;;;;4.78;100.00;100545.53;5077401;28;20117;-78
2023/02/24 03:58:55;;;;;;;24.60;6.00;;;;;;;4.77;100.00;100549.06;5081612;28;20119;-78
2023/02/24 04:01:33;;;;;;;30.48;6.22;;;;;;;4.85;100.00;100552.72;5076823;28;20075;-79
2023/02/24 04:04:06;;;;;;;33.95;6.57;;;;;;;4.79;100.00;100550.59;5069744;28;20447;-79
2023/02/24 04:06:40;;;;;;;29.33;6.05;;;;;;;4.78;100.00;100556.72;5073519;28;20053;-79
2023/02/24 04:09:15;;;;;;;31.55;6.85;;;;;;;4.73;100.00;100553.69;5068443;28;20052;-77
2023/02/24 04:11:45;;;;;;;33.75;5.78;;;;;;;4.70;100.00;100553.94;5070210;28;20490;-77
2023/02/24 04:14:23;;;;;;;21.83;5.40;;;;;;;4.67;100.00;100549.00;5079356;28;20112;-79
2023/02/24 04:16:59;;;;;;;22.23;5.25;;;;;;;4.67;100.00;100551.59;5083374;28;20044;-78
2023/02/24 04:19:28;;;;;;;27.95;6.82;;;;;;;4.73;100.00;100553.69;5083803;28;20047;-79
2023/02/24 04:21:56;;;;;;;22.27;5.97;;;;;;;4.75;100.00;100550.97;5074913;28;20368;-78
2023/02/24 04:24:32;;;;;;;24.30;5.35;;;;;;;4.70;100.00;100533.22;5065944;28;20049;-79
2023/02/24 04:27:01;;;;;;;31.98;6.30;;;;;;;4.70;100.00;100542.75;5078364;28;20148;-80
2023/02/24 04:29:34;;;;;;;32.55;6.45;;;;;;;4.64;100.00;100544.88;5075296;28;20103;-77
2023/02/24 04:32:06;;;;;;;30.13;5.72;;;;;;;4.57;100.00;100550.66;5069306;28;20053;-79
2023/02/24 04:34:32;;;;;;;24.77;5.38;;;;;;;4.64;100.00;100531.91;5071577;28;20055;-79
2023/02/24 04:37:01;;;;;;;27.25;5.40;;;;;;;4.65;100.00;100537.94;5073555;28;20052;-78
2023/02/24 04:39:30;;;;;;;21.15;5.97;;;;;;;4.60;100.00;100547.81;5077238;28;20041;-78
2023/02/24 04:41:57;;;;;;;25.58;6.15;;;;;;;4.56;100.00;100536.06;5068966;28;20076;-80
2023/02/24 04:44:25;;;;;;;21.92;6.10;;;;;;;4.45;100.00;100529.09;5080022;28;20506;-80
2023/02/24 04:46:51;;;;;;;27.95;6.25;;;;;;;4.45;100.00;100533.47;5081383;28;20052;-80
2023/02/24 04:49:19;;;;;;;30.50;6.60;;;;;;;4.39;100.00;100533.94;5081843;28;20056;-79
2023/02/24 04:51:46;;;;;;;21.95;5.63;;;;;;;4.38;100.00;100516.75;5086657;28;20055;-75
2023/02/24 04:54:17;;;;;;;24.60;6.88;;;;;;;4.42;100.00;100511.22;5087207;28;20074;-76
2023/02/24 04:56:46;;;;;;;22.25;8.13;;;;;;;4.31;100.00;100512.03;5078343;28;20134;-78
2023/02/24 04:59:13;;;;;;;18.92;5.63;;;;;;;4.21;100.00;100503.34;5070049;28;20056;-77
2023/02/24 05:01:41;;;;;;;25.52;6.40;;;;;;;4.10;100.00;100511.13;5079968;28;20434;-78
2023/02/24 05:04:07;;;;;;;20.17;6.10;;;;;;;3.98;100.00;100504.28;5086941;28;20071;-78
2023/02/24 05:06:34;;;;;;;23.00;6.10;;;;;;;3.87;100.00;100506.84;5075831;28;20080;-78
2023/02/24 05:09:13;;;;;;;29.88;7.00;;;;;;;3.85;100.00;100509.56;5080280;28;20077;-78
2023/02/24 05:11:41;;;;;;;25.58;7.68;;;;;;;3.83;100.00;100508.00;5064912;28;20053;-76
2023/02/24 05:14:13;;;;;;;26.38;6.57;;;;;;;3.71;100.00;100493.44;5080120;28;20052;-77
2023/02/24 05:16:41;;;;;;;17.75;5.88;;;;;;;3.62;100.00;100495.78;5064813;28;20107;-78
2023/02/24 05:21:52;;;;;;;20.52;5.93;;;;;;;3.60;100.00;100502.00;5064694;28;20052;-77
2023/02/24 05:24:19;;;;;;;19.85;6.38;;;;;;;3.63;100.00;100505.19;5065528;28;20079;-78
2023/02/24 05:26:46;;;;;;;23.27;6.25;;;;;;;3.66;100.00;100494.59;5063210;28;20069;-76
2023/02/24 05:29:14;;;;;;;19.15;6.75;;;;;;;3.75;100.00;100497.44;5080434;28;20049;-78
2023/02/24 05:31:41;;;;;;;23.27;6.00;;;;;;;3.79;100.00;100498.84;5077507;28;20136;-78
2023/02/24 05:34:08;;;;;;;20.77;5.55;;;;;;;3.82;100.00;100493.44;5079833;28;20112;-78
2023/02/24 05:36:39;;;;;;;23.70;6.40;;;;;;;3.77;100.00;100493.81;5070503;28;20044;-78
2023/02/24 05:39:06;;;;;;;20.60;5.85;;;;;;;3.78;100.00;100486.84;5078080;28;20071;-78
2023/02/24 05:41:34;;;;;;;28.67;7.20;;;;;;;3.80;100.00;100490.13;5070578;28;20120;-78
2023/02/24 05:44:07;;;;;;;16.17;5.97;;;;;;;3.77;100.00;100482.63;5084094;28;20053;-80
2023/02/24 05:46:37;;;;;;;23.70;6.03;;;;;;;3.82;100.00;100490.84;5080911;28;20044;-79
2023/02/24 05:49:07;;;;;;;28.30;6.13;;;;;;;3.84;100.00;100474.25;5081287;28;20106;-77
2023/02/24 05:51:36;;;;;;;26.88;5.63;;;;;;;3.78;100.00;100481.69;5078680;28;20056;-79
2023/02/24 05:54:03;;;;;;;20.95;5.50;;;;;;;3.73;100.00;100474.25;5069870;28;20049;-79
2023/02/24 05:56:31;;;;;;;14.82;5.63;;;;;;;3.73;100.00;100476.03;5073778;28;20511;-78
2023/02/24 05:59:01;;;;;;;20.00;5.00;;;;;;;3.71;100.00;100449.44;5085586;28;20059;-78
2023/02/24 06:01:30;;;;;;;18.73;4.72;;;;;;;3.70;100.00;100448.63;5081926;28;20104;-79
2023/02/24 06:04:04;;;;;;;26.48;5.40;;;;;;;3.67;100.00;100443.69;5083054;28;20236;-78
2023/02/24 06:06:34;;;;;;;15.63;4.80;;;;;;;3.63;100.00;100458.59;5069585;28;20056;-77
2023/02/24 06:09:06;;;;;;;26.10;5.05;;;;;;;3.61;99.94;100455.31;5064081;28;20454;-78
2023/02/24 06:11:33;;;;;;;25.75;5.60;;;;;;;3.62;99.65;100451.78;5083817;28;20505;-76
2023/02/24 06:13:59;;;;;;;26.92;5.82;;;;;;;3.62;99.76;100451.78;5084122;28;20072;-78
2023/02/24 06:16:26;;;;;;;18.05;6.80;;;;;;;3.63;99.62;100448.25;5084554;28;20059;-78
2023/02/24 06:18:53;;;;;;;31.58;6.20;;;;;;;3.65;98.61;100451.56;5086942;28;20072;-77
2023/02/24 06:21:20;;;;;;;18.73;5.40;;;;;;;3.73;98.30;100452.75;5078733;28;20087;-77
2023/02/24 06:23:48;;;;;;;23.17;5.57;;;;;;;3.74;98.75;100451.81;5079559;28;20108;-77
2023/02/24 06:26:18;;;;;;;18.52;4.88;;;;;;;3.81;98.19;100447.78;5068413;28;20460;-76
2023/02/24 06:28:45;;;;;;;22.95;4.80;;;;;;;3.84;98.15;100450.13;5075233;28;20044;-78
2023/02/24 06:31:12;;;;;;;24.70;5.15;;;;;;;3.82;98.27;100439.91;5072564;28;20048;-79
2023/02/24 06:33:40;;;;;;;19.13;4.75;;;;;;;3.88;98.05;100443.78;5075802;28;20113;-78
2023/02/24 06:36:08;;;;;;;21.15;5.40;;;;;;;3.92;98.44;100440.03;5075946;28;20127;-78
2023/02/24 06:38:38;;;;;;;27.45;5.20;;;;;;;3.90;98.41;100431.53;5057829;28;20140;-77
2023/02/24 06:41:09;;;;;;;28.38;5.80;;;;;;;3.91;98.79;100430.59;5069630;28;20048;-78
2023/02/24 06:43:37;;;;;;;20.73;4.97;;;;;;;3.91;99.00;100425.44;5075461;28;20049;-78
2023/02/24 06:46:05;;;;;;;22.58;5.47;;;;;;;3.99;99.11;100428.25;5073047;28;20074;-78
2023/02/24 06:48:32;;;;;;;24.30;5.13;;;;;;;4.06;99.40;100429.44;5067470;28;20371;-78
2023/02/24 06:50:59;;;;;;;21.85;5.25;;;;;;;4.05;100.00;100432.97;5076714;28;20406;-78
2023/02/24 06:53:26;;;;;;;27.83;6.35;;;;;;;4.00;100.00;100427.31;5077699;28;20050;-78
2023/02/24 06:55:54;;;;;;;20.58;6.40;;;;;;;4.02;99.66;100422.84;5078645;28;20036;-78
2023/02/24 06:58:23;;;;;;;28.58;6.72;;;;;;;4.08;100.00;100426.72;5075278;28;20167;-79
2023/02/24 07:00:56;;;;;;;22.45;6.10;;;;;;;4.09;100.00;100439.56;5069352;28;20103;-78
2023/02/24 07:03:24;;;;;;;30.48;5.90;;;;;;;4.13;100.00;100425.44;5070388;28;20049;-78
2023/02/24 07:06:09;;;;;;;21.15;5.70;;;;;;;4.13;100.00;100435.78;5068981;28;20333;-77
2023/02/24 07:08:37;;;;;;;30.50;6.07;;;;;;;4.13;100.00;100440.97;5074489;28;20048;-80
2023/02/24 07:11:06;;;;;;;19.63;5.45;;;;;;;4.12;100.00;100431.53;5075888;28;20139;-80
2023/02/24 07:13:33;;;;;;;22.67;5.55;;;;;;;4.12;99.68;100423.78;5077113;28;20088;-80
2023/02/24 07:16:05;;;;;;;35.53;6.47;;;;;;;4.11;99.63;100414.38;5075470;28;20075;-77
2023/02/24 07:18:34;;;;;;;24.20;6.38;;;;;;;4.14;99.37;100432.25;5075077;28;20084;-78
2023/02/24 07:21:03;;;;;;;24.00;6.30;;;;;;;4.14;99.45;100421.06;5073138;28;20056;-78
2023/02/24 07:23:31;;;;;;;22.20;5.82;;;;;;;4.29;99.60;100428.44;5071636;28;20041;-77
2023/02/24 07:25:58;;;;;;;26.05;6.90;;;;;;;4.26;99.53;100415.72;5068879;28;20045;-78
2023/02/24 07:28:26;;;;;;;21.33;6.60;;;;;;;4.31;99.97;100423.97;5072262;28;20048;-79
2023/02/24 07:30:53;;;;;;;22.63;5.85;;;;;;;4.24;99.66;100422.81;5064427;28;20450;-79
2023/02/24 07:33:19;;;;;;;25.73;6.07;;;;;;;4.26;99.17;100418.31;5070144;28;20132;-78
2023/02/24 07:35:50;;;;;;;18.15;5.68;;;;;;;4.25;98.95;100414.06;5072592;28;20430;-79
2023/02/24 07:38:21;;;;;;;31.75;6.65;;;;;;;4.18;98.88;100407.75;5068834;28;20147;-79
2023/02/24 07:40:48;;;;;;;27.38;6.20;;;;;;;4.23;98.89;100410.00;5065465;28;20110;-79
2023/02/24 07:43:15;;;;;;;20.23;6.13;;;;;;;4.29;98.46;100396.53;5067112;28;20512;-79
2023/02/24 07:45:43;;;;;;;23.00;6.25;;;;;;;4.25;98.80;100402.94;5066580;28;20044;-78
2023/02/24 07:48:11;;;;;;;19.98;5.90;;;;;;;4.27;98.44;100396.66;5073707;28;20139;-77
2023/02/24 07:50:40;;;;;;;31.60;7.07;;;;;;;4.32;97.81;100394.53;5073486;28;20431;-79
2023/02/24 07:53:08;;;;;;;23.80;6.22;;;;;;;4.40;98.08;100386.16;5074287;28;20048;-79
2023/02/24 07:55:35;;;;;;;25.10;6.30;;;;;;;4.47;97.67;100373.53;5064415;28;20338;-78
2023/02/24 07:58:04;;;;;;;23.30;6.35;;;;;;;4.53;97.72;100371.28;5077756;28;20076;-80
2023/02/24 08:00:48;;;;;;;19.98;5.63;;;;;;;4.63;97.01;100379.97;5074181;28;20052;-79
2023/02/24 08:03:16;;;;;;;23.40;6.90;;;;;;;4.70;97.33;100375.09;5076190;28;20040;-77
2023/02/24 08:05:43;;;;;;;28.13;7.72;;;;;;;4.72;97.41;100362.84;5078020;28;20121;-79
2023/02/24 08:08:11;;;;;;;27.85;10.35;;;;;;;4.78;96.68;100366.69;5078594;28;20048;-77
2023/02/24 08:10:40;;;;;;;29.55;9.32;;;;;;;4.79;96.63;100365.72;5066996;28;20127;-79
2023/02/24 08:13:10;;;;;;;32.15;7.90;;;;;;;4.75;96.94;100359.16;5068908;28;20048;-78
2023/02/24 08:15:37;;;;;;;29.70;8.25;;;;;;;4.72;97.32;100352.47;5066794;28;20047;-78
2023/02/24 08:18:04;;;;;;;30.63;8.88;;;;;;;4.63;97.69;100355.81;5063886;28;20111;-79
2023/02/24 08:20:50;;;;;;;30.25;9.32;;;;;;;4.75;97.73;100352.19;5073127;28;20075;-78
2023/02/24 08:23:17;;;;;;;33.80;8.73;;;;;;;4.63;98.01;100343.66;5073734;28;20094;-79
2023/02/24 08:25:44;;;;;;;22.27;8.25;;;;;;;4.72;98.39;100343.88;5072403;28;20200;-77
2023/02/24 08:28:11;;;;;;;25.13;7.20;;;;;;;4.73;98.20;100345.50;5059329;28;20048;-78
2023/02/24 08:30:43;;;;;;;28.50;7.57;;;;;;;4.73;98.14;100337.72;5069852;28;20059;-77
2023/02/24 08:33:14;;;;;;;26.45;8.13;;;;;;;4.75;98.62;100336.63;5068587;28;20062;-77
2023/02/24 08:35:43;;;;;;;24.23;8.43;;;;;;;4.70;98.46;100332.81;5075752;28;20056;-79
2023/02/24 08:38:13;;;;;;;27.75;7.57;;;;;;;4.74;98.32;100331.59;5077387;28;20392;-78
2023/02/24 08:40:53;;;;;;;22.40;8.05;;;;;;;4.72;98.23;100326.56;5073273;28;20052;-77
2023/02/24 08:43:33;;;;;;;20.50;7.20;;;;;;;4.78;98.46;100322.59;5079273;28;20059;-80
2023/02/24 08:46:11;;;;;;;17.52;6.78;;;;;;;4.90;98.04;100316.41;5074774;28;20083;-78
2023/02/24 08:48:41;;;;;;;18.55;6.72;;;;;;;4.93;97.41;100311.81;5066107;28;20418;-79
2023/02/24 08:51:13;;;;;;;18.75;6.93;;;;;;;4.86;96.52;100310.66;5070608;28;20372;-77
2023/02/24 08:53:40;;;;;;;26.83;7.10;;;;;;;4.92;96.95;100310.16;5074737;28;20060;-79
2023/02/24 08:56:10;;;;;;;22.10;7.63;;;;;;;4.91;96.48;100311.09;5072348;28;20058;-75
2023/02/24 08:58:39;;;;;;;24.08;7.00;;;;;;;4.85;95.57;100309.03;5072974;28;20048;-77
2023/02/24 09:01:17;;;;;;;26.60;6.90;;;;;;;4.82;94.28;100291.13;5070833;28;20052;-79
2023/02/24 09:03:46;;;;;;;17.88;6.70;;;;;;;4.89;93.94;100278.47;5070565;28;20070;-76
2023/02/24 09:06:16;;;;;;;16.63;5.95;;;;;;;4.89;92.30;100268.94;5069089;28;20059;-78
2023/02/24 09:08:45;;;;;;;20.58;7.05;;;;;;;4.93;92.18;100269.50;5073668;28;20048;-76
2023/02/24 09:11:15;;;;;;;26.20;6.60;;;;;;;5.03;91.33;100274.75;5072690;28;20136;-76
2023/02/24 09:13:50;;;;;;;21.60;6.10;;;;;;;4.97;91.00;100263.94;5059140;28;20491;-78
2023/02/24 09:16:18;;;;;;;20.27;6.50;;;;;;;5.03;90.22;100257.41;5068510;28;20048;-79
2023/02/24 09:19:13;;;;;;;14.93;5.28;;;;;;;5.16;89.03;100254.59;5055988;28;20091;-79
2023/02/24 09:24:26;;;;;;;13.77;5.50;;;;;;;5.14;87.52;100241.75;5071780;28;20041;-77
2023/02/24 09:26:57;;;;;;;21.00;5.75;;;;;;;5.05;87.02;100237.34;5065586;28;20052;-78
2023/02/24 09:29:48;;;;;;;18.75;5.85;;;;;;;5.17;86.79;100236.31;5063396;28;20136;-76
2023/02/24 09:32:15;;;;;;;21.85;5.63;;;;;;;5.39;87.07;100239.66;5067409;28;20044;-76
2023/02/24 09:34:43;;;;;;;20.70;5.40;;;;;;;5.26;87.01;100245.06;5068816;28;20083;-76
2023/02/24 09:37:23;;;;;;;11.77;5.78;;;;;;;5.36;86.47;100245.91;5072588;28;20080;-77
2023/02/24 09:42:46;;;;;;;15.75;6.45;;;;;;;5.54;85.74;100239.16;5072158;28;20457;-76
2023/02/24 09:45:31;;;;;;;19.70;6.38;;;;;;;5.35;85.72;100236.50;5063176;28;20049;-76
2023/02/24 09:48:09;;;;;;;20.33;6.10;;;;;;;5.22;84.95;100228.13;5060691;28;20060;-78
2023/02/24 09:50:44;;;;;;;12.80;6.18;;;;;;;5.28;85.26;100235.38;5072649;28;20578;-78
2023/02/24 09:53:17;;;;;;;21.92;6.28;;;;;;;5.35;85.95;100236.50;5064181;28;20040;-79
2023/02/24 09:56:02;;;;;;;24.83;7.03;;;;;;;5.43;85.79;100236.66;5071066;28;20037;-78
2023/02/24 09:58:37;;;;;;;22.05;6.68;;;;;;;5.52;85.14;100227.25;5079731;28;20056;-80
2023/02/24 10:01:20;;;;;;;16.05;7.18;;;;;;;5.40;85.13;100229.13;5077646;28;20120;-78
2023/02/24 10:03:52;;;;;;;;;;;;;;;5.56;85.01;100226.88;5080209;28;20087;-78
2023/02/24 10:06:20;;;;;;;18.65;7.40;;;;;;;5.46;84.02;100213.03;5063894;28;19920;-79
2023/02/24 10:08:56;;;;;;;21.52;7.65;;;;;;;5.45;84.00;100198.41;5079099;28;20113;-78
2023/02/24 10:11:31;;;;;;;21.92;8.32;;;;;;;5.45;83.57;100188.03;5076130;28;20170;-77
2023/02/24 10:14:00;;;;;;;17.63;7.97;;;;;;;5.49;83.08;100180.81;5072362;28;20430;-78
2023/02/24 10:16:40;;;;;;;19.75;9.13;;;;;;;5.55;82.80;100183.69;5070259;28;20143;-78
2023/02/24 10:19:14;;;;;;;23.02;8.98;;;;;;;5.59;83.50;100190.25;5078953;28;20510;-79
2023/02/24 10:21:59;;;;;;;19.17;8.50;;;;;;;5.48;83.58;100182.59;5070542;28;20059;-78
2023/02/24 10:24:33;;;;;;;19.67;8.73;;;;;;;5.45;83.69;100189.81;5056427;28;20140;-78
2023/02/24 10:27:06;;;;;;;17.20;8.40;;;;;;;5.44;83.76;100176.03;5060719;28;20601;-78
2023/02/24 10:29:46;;;;;;;17.50;7.97;;;;;;;5.50;83.51;100174.66;5075826;28;20131;-78
2023/02/24 10:32:22;;;;;;;17.83;7.45;;;;;;;5.33;82.77;100173.53;5069396;28;20041;-77
2023/02/24 10:34:49;;;;;;;14.65;6.53;;;;;;;5.28;83.26;100170.53;5058911;28;20055;-79
2023/02/24 10:37:19;;;;;;;19.30;7.13;;;;;;;5.32;82.59;100164.94;5060659;28;20072;-76
2023/02/24 10:39:49;;;;;;;17.20;7.55;;;;;;;5.28;82.65;100160.97;5066831;28;20052;-78
2023/02/24 10:42:24;;;;;;;15.80;7.38;;;;;;;5.18;82.61;100154.13;5055359;28;20056;-78
2023/02/24 10:44:52;;;;;;;27.58;8.30;;;;;;;5.21;83.23;100156.44;5068068;28;20507;-79
2023/02/24 10:47:29;;;;;;;20.30;8.55;;;;;;;5.30;83.20;100174.63;5076422;28;20049;-78
2023/02/24 10:49:58;;;;;;;19.08;8.45;;;;;;;5.26;84.09;100159.47;5069400;28;20052;-78
2023/02/24 10:55:27;;;;;;;18.77;7.63;;;;;;;5.28;84.69;100160.13;5060259;28;20123;-79
2023/02/24 10:58:05;;;;;;;19.13;7.47;;;;;;;5.22;84.16;100164.09;5072628;28;20071;-79
2023/02/24 11:03:34;;;;;;;19.98;8.20;;;;;;;5.12;84.64;100144.28;5066995;28;20072;-79
2023/02/24 11:06:19;;;;;;;31.10;8.32;;;;;;;5.06;83.96;100137.03;5084183;28;20041;-77
2023/02/24 11:09:07;;;;;;;23.55;7.85;;;;;;;5.12;84.27;100132.16;5060472;28;20068;-77
2023/02/24 11:17:16;;;;;;;26.85;7.70;;;;;;;5.03;85.32;100124.34;5069567;28;20110;-78
2023/02/24 11:19:45;;;;;;;20.08;7.50;;;;;;;4.93;84.83;100113.94;5075560;28;20052;-78
2023/02/24 11:22:16;;;;;;;17.02;7.47;;;;;;;4.99;85.08;100116.81;5061582;28;20124;-79
2023/02/24 11:24:45;;;;;;;102.00;15.30;;;;;;;4.96;85.60;100117.09;5067536;28;20086;-79
2023/02/24 11:27:15;;;;;;;22.13;6.57;;;;;;;4.89;85.53;100103.00;5080721;22;20049;-78
2023/02/24 11:29:57;;;;;;;19.92;6.15;;;;;;;4.82;85.38;100099.28;5069390;28;20098;-79
2023/02/24 11:32:47;;;;;;;21.48;6.57;;;;;;;4.82;86.10;100107.06;5075717;28;20045;-78
2023/02/24 11:35:21;;;;;;;22.05;6.47;;;;;;;4.87;86.27;100097.13;5078783;28;20055;-77
2023/02/24 11:38:01;;;;;;;13.90;5.47;;;;;;;4.87;86.38;100094.53;5044587;28;20096;-78
2023/02/24 11:40:33;;;;;;;18.52;6.35;;;;;;;4.87;86.09;100089.34;5052351;28;20079;-78
2023/02/24 11:43:10;;;;;;;14.73;5.32;;;;;;;4.92;86.28;100076.81;5053057;28;20107;-79
2023/02/24 11:45:41;;;;;;;24.15;7.15;;;;;;;4.89;85.97;100056.34;5053160;28;20056;-78
2023/02/24 11:48:13;;;;;;;20.83;5.57;;;;;;;4.88;86.80;100062.47;5049570;28;20079;-82
2023/02/24 11:50:46;;;;;;;13.77;5.75;;;;;;;4.81;86.92;100056.19;5044603;28;20495;-78
2023/02/24 11:53:23;;;;;;;19.13;5.63;;;;;;;4.92;87.07;100061.25;5054827;28;20117;-78
2023/02/24 11:55:57;;;;;;;14.88;5.72;;;;;;;5.00;87.38;100061.41;5054355;28;20716;-80
2023/02/24 11:58:32;;;;;;;16.40;6.13;;;;;;;4.93;88.12;100052.53;5054933;28;20057;-79
2023/02/24 12:01:03;;;;;;;22.10;7.32;;;;;;;4.96;88.10;100052.25;5033141;28;20053;-79
2023/02/24 12:03:37;;;;;;;16.90;6.28;;;;;;;4.98;88.15;100049.53;5054014;28;20139;-79